Airfield :
LOGIN :

Register | Disclaimer

   EN    FR    IT 

 










Legend :    VFR   Marginal VFR   IFR   Intensive IFR   Very Intensive IFR
Visi :
Ceiling :
>= 8 km
>= 3000ft
5 to 8 km
1000 to 3000 ft
1500m to 5 km
500 to 1000 ft
800 to 1500m
200 to 500 ft
< 800m
< 200 ft
Symbols :   Thunderstorms  Fog  Heavy snow  Heavy precipitations  Wind > 20 kt
SIGMETs :     Misc.  Thunderstorms  Icing  Turbulence  Mountain Waves  Volcanic Ashes






- Airport Elevation : 18 ft


LIPC - Cervia AFB Ravenna

CURRENT METAR :
  • 091755Z 28005KT 9999 FEW050 06/04 Q1000 RMK BKN SCT090 VIS MIN 9999 WIND THR11 28005KT WIND THR29 29007KT BLU

EXPIRED METARs :
  • 091655Z 29006KT 9999 FEW010 SCT050 07/05 Q1000 RMK OVC VIS MIN 9999 WIND THR11 27006KT WIND THR29 29007KT BLU
  • 091555Z 30006KT 6000 FEW007 SCT035 07/05 Q1000 RMK OVC VIS MIN 6000 WIND THR11 27004KT WIND THR29 29006KT WHT

TAF TAF LIPC
Valid from the 09 at 18:00 until the 10 at 03:00 UTC


091700Z 0918/1003 29010KT 6000 FEW005 SCT035
TEMPO 0918/1003 2000 BR SCT005 BKN030



MET'MAP, your aeronautical weather chart ! - Copyright ORBIFLY December 2007 - Disclaimer

ORBIFLY MET'MAP TEAM :

Programming & Development : Alexandra Zaïnal
Original concept : Baudouin d'Aumeries
Technical & hardware support : Manuel Goepfert
Assistance : Marc-Olivier Méhu




SOURCES & CREDITS :

   NOAA